Time;durP1;ratioP1;P1;durP2;ratioP2;P2;SDS_P1;SDS_P2;PMS_P1;PMS_P2;Temp;Humidity;BMP_temperature;BMP_pressure;BME280_temperature;BME280_humidity;BME280_pressure;Samples;Min_cycle;Max_cycle;Signal;HPM_P1;HPM_P2
2021/10/29 00:00:21;;;;;;;16.58;9.82;;;5.10;99.90;;;;;;5049742;28;20209;-69
2021/10/29 00:02:48;;;;;;;13.00;8.68;;;5.10;99.90;;;;;;5050000;28;20201;-69
2021/10/29 00:05:14;;;;;;;11.77;8.60;;;5.10;99.90;;;;;;5049560;28;20229;-69
2021/10/29 00:07:41;;;;;;;11.02;8.90;;;5.10;99.90;;;;;;5049619;28;20212;-69
2021/10/29 00:10:08;;;;;;;11.10;8.70;;;5.10;99.90;;;;;;5049246;28;20205;-69
2021/10/29 00:12:35;;;;;;;11.05;8.55;;;5.00;99.90;;;;;;5049449;28;20205;-68
2021/10/29 00:15:03;;;;;;;10.65;9.10;;;5.00;99.90;;;;;;5049293;28;20282;-69
2021/10/29 00:17:30;;;;;;;11.98;9.60;;;4.90;99.90;;;;;;5053744;28;20212;-69
2021/10/29 00:19:57;;;;;;;10.35;8.48;;;4.80;99.90;;;;;;5053939;28;20197;-69
2021/10/29 00:22:24;;;;;;;11.10;8.75;;;4.80;99.90;;;;;;5050957;28;20212;-69
2021/10/29 00:24:50;;;;;;;9.80;8.48;;;4.80;99.90;;;;;;5049433;28;20244;-69
2021/10/29 00:27:17;;;;;;;10.70;9.15;;;4.70;99.90;;;;;;5049229;28;20217;-69
2021/10/29 00:29:44;;;;;;;9.82;8.10;;;4.80;99.90;;;;;;5049140;28;20715;-68
2021/10/29 00:32:12;;;;;;;9.00;7.93;;;4.70;99.90;;;;;;5049466;28;20204;-69
2021/10/29 00:34:39;;;;;;;12.05;8.10;;;4.70;99.90;;;;;;5049200;28;20612;-69
2021/10/29 00:37:05;;;;;;;9.95;8.35;;;4.70;99.90;;;;;;5048833;28;20228;-69
2021/10/29 00:39:32;;;;;;;8.57;7.53;;;4.80;99.90;;;;;;5049442;28;20205;-69
2021/10/29 00:41:59;;;;;;;9.73;8.18;;;4.80;99.90;;;;;;5049622;28;20197;-69
2021/10/29 00:44:27;;;;;;;13.95;9.73;;;4.80;99.90;;;;;;5049222;28;20674;-69
2021/10/29 00:46:55;;;;;;;11.00;8.10;;;4.70;99.90;;;;;;5048397;28;20224;-69
2021/10/29 00:49:23;;;;;;;10.75;9.15;;;4.70;99.90;;;;;;5049340;28;20201;-69
2021/10/29 00:51:50;;;;;;;10.25;7.85;;;4.80;99.90;;;;;;5049334;28;20213;-69
2021/10/29 00:54:19;;;;;;;10.75;8.05;;;4.70;99.90;;;;;;5049294;28;20224;-69
2021/10/29 00:56:48;;;;;;;14.60;8.88;;;4.70;99.90;;;;;;5048925;28;20224;-69
2021/10/29 00:59:17;;;;;;;9.85;8.80;;;4.70;99.90;;;;;;5049615;28;20201;-69
2021/10/29 01:01:44;;;;;;;9.63;7.53;;;4.70;99.90;;;;;;5049108;28;20258;-69
2021/10/29 01:04:11;;;;;;;10.50;8.60;;;4.70;99.90;;;;;;5049353;28;20212;-69
2021/10/29 01:06:39;;;;;;;12.32;7.82;;;4.60;99.90;;;;;;5048723;28;20221;-69
2021/10/29 01:09:06;;;;;;;11.65;8.00;;;4.60;99.90;;;;;;5077525;22;20236;-94
2021/10/29 01:11:33;;;;;;;9.82;8.32;;;4.60;99.90;;;;;;5080828;22;20224;-73
2021/10/29 01:14:00;;;;;;;8.95;7.55;;;4.50;99.90;;;;;;5069873;28;20291;-73
2021/10/29 01:16:27;;;;;;;10.60;8.68;;;4.50;99.90;;;;;;5057024;28;20225;-74
2021/10/29 01:18:54;;;;;;;10.63;8.80;;;4.50;99.90;;;;;;5050233;28;20197;-73
2021/10/29 01:21:22;;;;;;;9.70;7.13;;;4.40;99.90;;;;;;5050202;28;20189;-73
2021/10/29 01:23:49;;;;;;;11.15;8.40;;;4.40;99.90;;;;;;5050011;28;20205;-73
2021/10/29 01:26:17;;;;;;;9.70;8.10;;;4.40;99.90;;;;;;5049887;28;20582;-73
2021/10/29 01:28:46;;;;;;;10.57;7.40;;;4.30;99.90;;;;;;5050093;28;20661;-73
2021/10/29 01:31:14;;;;;;;9.75;7.70;;;4.30;99.90;;;;;;5049935;28;20216;-73
2021/10/29 01:33:41;;;;;;;10.68;7.93;;;4.30;99.90;;;;;;5049959;28;20200;-73
2021/10/29 01:36:08;;;;;;;10.07;8.38;;;4.30;99.90;;;;;;5049226;28;20231;-73
2021/10/29 01:38:38;;;;;;;13.55;7.95;;;4.30;99.90;;;;;;5050213;28;20205;-73
2021/10/29 01:41:06;;;;;;;10.35;8.55;;;4.40;99.90;;;;;;5049848;28;20201;-73
2021/10/29 01:43:39;;;;;;;9.27;7.57;;;4.40;99.90;;;;;;5050002;28;20212;-73
2021/10/29 01:46:05;;;;;;;10.52;7.63;;;4.30;99.90;;;;;;5049214;28;20220;-73
2021/10/29 01:48:32;;;;;;;12.15;8.18;;;4.20;99.90;;;;;;5049947;28;20205;-73
2021/10/29 01:50:59;;;;;;;9.52;8.10;;;4.20;99.90;;;;;;5049727;28;20201;-72
2021/10/29 01:53:27;;;;;;;9.15;7.70;;;4.20;99.90;;;;;;5049833;28;20205;-72
2021/10/29 01:55:55;;;;;;;9.38;7.35;;;4.20;99.90;;;;;;5049197;28;20598;-72
2021/10/29 01:58:22;;;;;;;14.80;8.50;;;4.20;99.90;;;;;;5049722;28;20720;-73
2021/10/29 02:00:49;;;;;;;12.98;7.05;;;4.20;99.90;;;;;;5053122;28;20205;-73
2021/10/29 02:03:16;;;;;;;9.27;7.68;;;4.20;99.90;;;;;;5053301;28;20691;-72
2021/10/29 02:05:43;;;;;;;9.18;7.25;;;4.10;99.90;;;;;;5053160;28;20221;-72
2021/10/29 02:08:10;;;;;;;9.52;6.72;;;4.20;99.90;;;;;;5053081;28;20691;-73
2021/10/29 02:10:37;;;;;;;11.25;8.07;;;4.10;99.90;;;;;;5053508;28;20299;-73
2021/10/29 02:13:06;;;;;;;7.82;7.03;;;4.20;99.90;;;;;;5053071;28;20216;-72
2021/10/29 02:15:33;;;;;;;8.77;6.68;;;4.10;99.90;;;;;;5053064;28;20228;-73
2021/10/29 02:17:59;;;;;;;8.90;6.63;;;4.10;99.90;;;;;;5052662;28;20231;-73
2021/10/29 02:20:26;;;;;;;8.65;6.25;;;4.20;99.90;;;;;;5053033;28;20205;-72
2021/10/29 02:22:53;;;;;;;12.52;7.05;;;4.20;99.90;;;;;;5053194;28;20613;-73
2021/10/29 02:25:20;;;;;;;9.82;7.50;;;4.20;99.90;;;;;;5053015;28;20213;-72
2021/10/29 02:27:47;;;;;;;9.25;7.05;;;4.20;99.90;;;;;;5052455;28;20205;-73
2021/10/29 02:30:15;;;;;;;9.80;6.10;;;4.20;99.90;;;;;;5052852;28;20672;-72
2021/10/29 02:32:42;;;;;;;8.15;6.90;;;4.20;99.90;;;;;;5052965;28;20197;-73
2021/10/29 02:35:09;;;;;;;10.20;7.20;;;4.20;99.90;;;;;;5052585;28;20312;-73
2021/10/29 02:37:36;;;;;;;8.10;6.90;;;4.10;99.90;;;;;;5052337;28;20201;-72
2021/10/29 02:40:03;;;;;;;8.00;6.32;;;4.10;99.90;;;;;;5052618;28;20205;-72
2021/10/29 02:42:30;;;;;;;6.82;6.00;;;4.10;99.90;;;;;;5052969;28;20205;-73
2021/10/29 02:44:57;;;;;;;8.00;6.78;;;4.10;99.90;;;;;;5052426;28;20201;-72
2021/10/29 02:47:25;;;;;;;9.13;6.35;;;4.00;99.90;;;;;;5052223;28;20200;-73
2021/10/29 02:49:52;;;;;;;12.45;7.18;;;4.00;99.90;;;;;;5053587;28;20205;-73
2021/10/29 02:52:19;;;;;;;10.93;6.90;;;4.00;99.90;;;;;;5052985;28;20604;-73
2021/10/29 02:54:45;;;;;;;9.40;7.22;;;4.00;99.90;;;;;;5052449;28;20252;-73
2021/10/29 02:57:12;;;;;;;7.47;6.38;;;3.90;99.90;;;;;;5051744;28;20221;-73
2021/10/29 02:59:39;;;;;;;12.88;7.32;;;3.90;99.90;;;;;;5052602;28;20212;-73
2021/10/29 03:02:06;;;;;;;7.78;6.40;;;3.90;99.90;;;;;;5052276;28;20209;-73
2021/10/29 03:04:34;;;;;;;7.70;6.90;;;3.80;99.90;;;;;;5052521;28;20216;-73
2021/10/29 03:07:01;;;;;;;9.25;6.03;;;3.80;99.90;;;;;;5051803;28;20244;-73
2021/10/29 03:09:28;;;;;;;9.80;6.40;;;3.80;99.90;;;;;;5053511;28;20209;-73
2021/10/29 03:11:55;;;;;;;8.07;6.82;;;3.80;99.90;;;;;;5052827;28;20209;-73
2021/10/29 03:14:21;;;;;;;8.73;6.78;;;3.80;99.90;;;;;;5052654;28;20581;-73
2021/10/29 03:16:48;;;;;;;9.85;6.80;;;3.80;99.90;;;;;;5051767;28;20237;-74
2021/10/29 03:19:15;;;;;;;9.35;6.85;;;3.80;99.90;;;;;;5052208;28;20197;-73
2021/10/29 03:21:43;;;;;;;8.02;6.07;;;3.80;99.90;;;;;;5052153;28;20205;-73
2021/10/29 03:24:10;;;;;;;9.55;6.75;;;3.70;99.90;;;;;;5051861;28;20201;-74
2021/10/29 03:26:36;;;;;;;8.98;6.93;;;3.70;99.90;;;;;;5051479;28;20585;-74
2021/10/29 03:29:03;;;;;;;10.48;6.85;;;3.70;99.90;;;;;;5051950;28;20607;-74
2021/10/29 03:31:30;;;;;;;10.63;7.20;;;3.70;99.90;;;;;;5051779;28;20691;-73
2021/10/29 03:33:57;;;;;;;10.02;8.05;;;3.70;99.90;;;;;;5051915;28;20280;-73
2021/10/29 03:36:24;;;;;;;7.10;6.40;;;3.70;99.90;;;;;;5051508;28;20240;-73
2021/10/29 03:38:57;;;;;;;9.02;6.78;;;3.70;99.90;;;;;;5052318;28;20205;-73
2021/10/29 03:41:26;;;;;;;9.35;7.30;;;3.80;99.90;;;;;;5052386;28;20247;-73
2021/10/29 03:43:56;;;;;;;9.10;7.35;;;3.80;99.90;;;;;;5051843;28;20585;-73
2021/10/29 03:46:24;;;;;;;9.05;7.30;;;3.80;99.90;;;;;;5051618;28;20275;-73
2021/10/29 03:48:59;;;;;;;10.77;9.60;;;3.80;99.90;;;;;;5052000;28;20200;-73
2021/10/29 03:51:28;;;;;;;8.27;6.85;;;3.80;99.90;;;;;;5052317;28;20559;-73
2021/10/29 03:54:00;;;;;;;8.25;6.20;;;3.80;99.90;;;;;;5051474;28;20610;-73
2021/10/29 03:56:28;;;;;;;11.15;7.38;;;3.80;99.90;;;;;;5049606;28;20312;-73
2021/10/29 03:58:57;;;;;;;9.35;7.13;;;3.70;99.90;;;;;;5048546;28;20213;-73
2021/10/29 04:01:24;;;;;;;9.60;7.40;;;3.70;99.90;;;;;;5048479;28;20201;-71
2021/10/29 04:03:51;;;;;;;12.60;7.32;;;3.70;99.90;;;;;;5048955;28;20664;-72
2021/10/29 04:06:18;;;;;;;9.88;6.80;;;3.70;99.90;;;;;;5042830;28;20620;-72
2021/10/29 04:08:45;;;;;;;8.10;6.60;;;3.70;99.90;;;;;;5051201;28;20201;-72
2021/10/29 04:11:14;;;;;;;9.18;7.00;;;3.70;99.90;;;;;;5050190;28;20263;-72
2021/10/29 04:13:44;;;;;;;10.68;8.25;;;3.70;99.90;;;;;;5051121;28;20296;-72
2021/10/29 04:16:11;;;;;;;10.10;7.18;;;3.60;99.90;;;;;;5048020;28;20595;-72
2021/10/29 04:18:37;;;;;;;8.90;7.90;;;3.70;99.90;;;;;;5050241;28;20220;-72
2021/10/29 04:21:05;;;;;;;9.65;7.07;;;3.60;99.90;;;;;;5050165;28;20211;-72
2021/10/29 04:23:32;;;;;;;9.75;7.65;;;3.60;99.90;;;;;;5050137;28;20212;-71
2021/10/29 04:25:59;;;;;;;9.50;7.32;;;3.60;99.90;;;;;;5049489;28;20227;-71
2021/10/29 04:28:27;;;;;;;8.52;7.20;;;3.60;99.90;;;;;;5050481;28;20201;-72
2021/10/29 04:30:55;;;;;;;9.25;7.60;;;3.60;99.90;;;;;;5049522;28;20211;-72
2021/10/29 04:33:22;;;;;;;8.98;7.15;;;3.60;99.90;;;;;;5050668;28;20201;-73
2021/10/29 04:35:53;;;;;;;8.32;7.43;;;3.60;99.90;;;;;;5049399;28;20259;-72
2021/10/29 04:38:21;;;;;;;10.65;7.20;;;3.60;99.90;;;;;;5051300;28;20208;-72
2021/10/29 04:40:49;;;;;;;11.52;7.55;;;3.60;99.90;;;;;;5050624;28;20224;-73
2021/10/29 04:43:16;;;;;;;9.25;7.60;;;3.70;99.90;;;;;;5050147;28;20208;-72
2021/10/29 04:45:44;;;;;;;9.57;8.00;;;3.80;99.90;;;;;;5050529;28;20582;-72
2021/10/29 04:48:11;;;;;;;9.73;8.00;;;4.00;99.90;;;;;;5049923;28;20213;-72
2021/10/29 04:50:37;;;;;;;9.65;8.40;;;4.00;99.90;;;;;;5050640;28;20216;-72
2021/10/29 04:53:05;;;;;;;11.63;7.85;;;3.90;99.90;;;;;;5050031;28;20208;-72
2021/10/29 04:55:31;;;;;;;11.98;8.60;;;3.70;99.90;;;;;;5049795;28;20279;-72
2021/10/29 04:57:58;;;;;;;10.73;8.32;;;3.70;99.90;;;;;;5049864;28;20200;-72
2021/10/29 05:00:25;;;;;;;8.25;7.25;;;3.60;99.90;;;;;;5049938;28;20605;-72
2021/10/29 05:02:55;;;;;;;10.90;7.90;;;3.60;99.90;;;;;;5048698;28;20200;-72
2021/10/29 05:05:22;;;;;;;9.63;7.90;;;3.60;99.90;;;;;;5050189;28;20568;-73
2021/10/29 05:07:49;;;;;;;11.65;8.73;;;3.60;99.90;;;;;;5049737;28;20635;-72
2021/10/29 05:10:16;;;;;;;12.50;7.55;;;3.60;99.90;;;;;;5051133;28;20212;-73
2021/10/29 05:12:45;;;;;;;11.77;8.50;;;3.60;99.90;;;;;;5050058;28;20209;-73
2021/10/29 05:15:12;;;;;;;9.65;7.88;;;3.50;99.90;;;;;;5049690;28;20240;-73
2021/10/29 05:17:40;;;;;;;8.18;7.07;;;3.60;99.90;;;;;;5049760;28;20212;-73
2021/10/29 05:20:09;;;;;;;16.23;6.90;;;3.50;99.90;;;;;;5049695;28;20209;-73
2021/10/29 05:22:36;;;;;;;10.57;7.22;;;3.50;99.90;;;;;;5050410;28;20209;-74
2021/10/29 05:25:03;;;;;;;9.15;7.38;;;3.50;99.90;;;;;;5050134;28;20212;-73
2021/10/29 05:27:30;;;;;;;10.05;8.15;;;3.50;99.90;;;;;;5049791;28;20547;-73
2021/10/29 05:29:57;;;;;;;10.48;7.13;;;3.40;99.90;;;;;;5050457;28;20201;-73
2021/10/29 05:32:23;;;;;;;11.18;7.70;;;3.40;99.90;;;;;;5050159;28;20201;-73
2021/10/29 05:34:50;;;;;;;9.15;7.13;;;3.40;99.90;;;;;;5052109;28;20201;-73
2021/10/29 05:37:18;;;;;;;9.10;7.25;;;3.40;99.90;;;;;;5053308;28;20235;-73
2021/10/29 05:39:45;;;;;;;10.55;7.72;;;3.40;99.90;;;;;;5054099;28;20572;-73
2021/10/29 05:42:12;;;;;;;9.40;6.90;;;3.40;99.90;;;;;;5054759;28;20205;-73
2021/10/29 05:44:38;;;;;;;8.80;7.55;;;3.30;99.90;;;;;;5053537;28;20209;-72
2021/10/29 05:47:05;;;;;;;8.20;6.80;;;3.30;99.90;;;;;;5053224;28;20221;-73
2021/10/29 05:49:32;;;;;;;8.00;6.60;;;3.30;99.90;;;;;;5053393;28;20206;-73
2021/10/29 05:51:59;;;;;;;10.33;9.00;;;3.30;99.90;;;;;;5052035;28;20455;-73
2021/10/29 05:57:10;;;;;;;7.30;6.50;;;3.20;99.90;;;;;;5051522;28;20235;-73
2021/10/29 05:59:37;;;;;;;8.10;7.28;;;3.20;99.90;;;;;;5054402;28;20201;-73
2021/10/29 06:02:04;;;;;;;7.45;6.38;;;3.20;99.90;;;;;;5053163;28;20672;-72
2021/10/29 06:04:31;;;;;;;9.50;7.57;;;3.20;99.90;;;;;;5054250;28;20205;-73
2021/10/29 06:06:58;;;;;;;9.98;6.80;;;3.20;99.90;;;;;;5053079;28;20232;-73
2021/10/29 06:09:27;;;;;;;8.20;7.00;;;3.20;99.90;;;;;;5055583;28;20649;-72
2021/10/29 06:11:54;;;;;;;10.10;7.25;;;3.20;99.90;;;;;;5053927;28;20216;-73
2021/10/29 06:14:21;;;;;;;9.68;6.97;;;3.20;99.90;;;;;;5053984;28;20209;-73
2021/10/29 06:16:47;;;;;;;10.52;7.95;;;3.20;99.90;;;;;;5053422;28;20241;-73
2021/10/29 06:19:14;;;;;;;8.25;6.70;;;3.20;99.90;;;;;;5054039;28;20207;-72
2021/10/29 06:21:44;;;;;;;13.82;8.45;;;3.20;99.90;;;;;;5053904;28;20201;-73
2021/10/29 06:24:13;;;;;;;10.75;8.50;;;3.20;99.90;;;;;;5053730;28;20212;-73
2021/10/29 06:26:46;;;;;;;9.98;7.93;;;3.20;99.90;;;;;;5053179;28;20624;-72
2021/10/29 06:29:13;;;;;;;11.70;7.65;;;3.30;99.90;;;;;;5053570;28;20212;-73
2021/10/29 06:31:41;;;;;;;11.57;8.65;;;3.40;99.90;;;;;;5053711;28;20201;-73
2021/10/29 06:34:08;;;;;;;10.57;7.65;;;3.40;99.90;;;;;;5052274;28;20208;-74
2021/10/29 06:36:34;;;;;;;11.50;8.10;;;3.40;99.90;;;;;;5051379;28;20610;-74
2021/10/29 06:39:02;;;;;;;11.50;8.80;;;3.40;99.90;;;;;;5051404;28;20559;-73
2021/10/29 06:41:29;;;;;;;12.75;9.57;;;3.40;99.90;;;;;;5048939;28;20291;-73
2021/10/29 06:44:10;;;;;;;11.60;9.48;;;3.50;99.90;;;;;;5046354;28;20224;-73
2021/10/29 06:46:43;;;;;;;10.85;7.93;;;3.50;99.90;;;;;;5051162;28;20221;-73
2021/10/29 06:49:14;;;;;;;10.68;8.25;;;3.60;99.90;;;;;;5045751;28;20295;-74
2021/10/29 06:52:12;;;;;;;10.80;8.23;;;3.60;99.90;;;;;;5049618;28;20205;-73
2021/10/29 07:00:20;;;;;;;11.80;9.02;;;3.90;99.90;;;;;;5031473;28;20549;-74
2021/10/29 07:41:39;;;;;;;13.40;9.40;;;8.10;99.90;;;;;;5051880;28;20299;-68
2021/10/29 07:44:13;;;;;;;13.23;9.45;;;8.20;99.90;;;;;;5049986;28;20501;-69
2021/10/29 07:46:42;;;;;;;11.40;9.80;;;8.20;99.90;;;;;;5050659;28;20312;-69
2021/10/29 07:49:12;;;;;;;13.85;10.00;;;8.30;99.90;;;;;;5050538;28;20209;-69
2021/10/29 07:51:40;;;;;;;10.90;8.82;;;8.40;99.90;;;;;;5050414;28;20578;-69
2021/10/29 07:54:08;;;;;;;11.23;8.63;;;8.60;99.90;;;;;;5050772;28;20300;-69
2021/10/29 07:56:35;;;;;;;11.52;8.80;;;8.80;99.90;;;;;;5049486;28;20225;-68
2021/10/29 07:59:03;;;;;;;11.23;9.27;;;8.90;99.90;;;;;;5050327;28;20741;-68
2021/10/29 08:01:30;;;;;;;11.90;9.70;;;9.10;99.90;;;;;;5050781;28;20274;-69
2021/10/29 08:03:57;;;;;;;11.05;8.75;;;9.40;99.90;;;;;;5049651;28;20546;-68
2021/10/29 08:06:26;;;;;;;12.75;11.07;;;9.70;99.90;;;;;;5050148;28;20213;-69
2021/10/29 08:08:54;;;;;;;11.23;9.32;;;10.10;99.90;;;;;;5050396;28;20205;-69
2021/10/29 08:11:22;;;;;;;10.75;8.82;;;10.50;99.90;;;;;;5050394;28;20205;-69
2021/10/29 08:13:49;;;;;;;11.07;9.32;;;10.80;99.90;;;;;;5050579;28;20551;-69
2021/10/29 08:16:17;;;;;;;11.13;9.52;;;10.80;99.90;;;;;;5049995;28;20252;-69
2021/10/29 08:18:45;;;;;;;9.85;8.85;;;10.70;99.90;;;;;;5050923;28;20208;-68
2021/10/29 08:21:14;;;;;;;9.90;8.90;;;10.60;99.90;;;;;;5050626;28;20209;-69
2021/10/29 08:23:43;;;;;;;13.10;10.13;;;10.40;99.90;;;;;;5050390;28;20726;-69
2021/10/29 08:26:12;;;;;;;10.90;9.80;;;10.20;99.90;;;;;;5050149;28;20225;-69
2021/10/29 08:28:40;;;;;;;11.30;10.10;;;10.10;99.90;;;;;;5050379;28;20284;-69
2021/10/29 08:31:08;;;;;;;11.98;10.15;;;10.10;99.90;;;;;;5050693;28;20236;-69
2021/10/29 08:33:35;;;;;;;10.80;9.20;;;10.20;99.90;;;;;;5048479;28;20284;-68
2021/10/29 08:36:05;;;;;;;14.27;10.45;;;10.30;99.90;;;;;;5048642;28;20580;-70
2021/10/29 08:38:33;;;;;;;12.45;9.20;;;10.10;99.90;;;;;;5050549;28;20270;-69
2021/10/29 08:41:02;;;;;;;10.15;9.07;;;10.00;99.90;;;;;;5049268;28;20204;-69
2021/10/29 08:43:29;;;;;;;10.65;9.45;;;10.00;99.90;;;;;;5049865;28;20193;-69
2021/10/29 08:45:57;;;;;;;12.38;10.40;;;9.90;99.90;;;;;;5049195;28;20220;-69
2021/10/29 08:48:26;;;;;;;11.60;9.45;;;10.00;99.90;;;;;;5049191;28;20197;-70
2021/10/29 08:50:59;;;;;;;10.77;9.68;;;10.10;99.90;;;;;;5049387;28;20192;-70
2021/10/29 08:53:26;;;;;;;13.13;9.90;;;10.40;99.90;;;;;;5047450;28;20212;-69
2021/10/29 08:56:00;;;;;;;11.57;10.13;;;10.60;99.90;;;;;;5048883;28;20221;-70
2021/10/29 08:58:30;;;;;;;8.60;7.75;;;10.90;99.90;;;;;;5049689;28;20473;-69
2021/10/29 09:01:02;;;;;;;10.25;9.02;;;11.30;99.90;;;;;;5048351;28;20223;-69
2021/10/29 09:03:39;;;;;;;9.45;8.55;;;11.60;99.90;;;;;;5049351;28;20266;-69
2021/10/29 09:06:24;;;;;;;10.23;8.07;;;11.70;99.90;;;;;;5048229;28;20228;-69
2021/10/29 09:09:00;;;;;;;12.27;9.65;;;11.70;99.90;;;;;;5051278;28;20301;-69
2021/10/29 09:11:46;;;;;;;12.55;9.73;;;11.80;99.90;;;;;;5053456;28;20624;-69
2021/10/29 09:17:30;;;;;;;10.00;9.00;;;12.00;99.90;;;;;;5024694;28;20319;-69
2021/10/29 09:31:24;;;;;;;16.55;9.82;;;12.30;99.90;;;;;;5072879;28;20469;-70
2021/10/29 09:33:52;;;;;;;10.73;9.03;;;12.60;99.90;;;;;;5072680;28;20642;-69
2021/10/29 09:36:27;;;;;;;10.38;9.10;;;12.80;99.90;;;;;;5073027;28;20528;-69
2021/10/29 09:38:56;;;;;;;12.83;8.53;;;13.00;99.90;;;;;;5072399;28;20770;-69
2021/10/29 09:41:23;;;;;;;7.53;6.83;;;13.20;99.90;;;;;;5073666;28;20517;-69
2021/10/29 09:43:55;;;;;;;8.63;7.07;;;13.40;99.90;;;;;;5072751;28;20459;-69
2021/10/29 09:46:37;;;;;;;7.43;6.73;;;13.80;99.90;;;;;;5071869;28;20985;-69
2021/10/29 09:49:13;;;;;;;7.43;6.73;;;14.10;99.90;;;;;;5072788;28;20957;-69
2021/10/29 09:51:52;;;;;;;7.17;6.43;;;14.30;99.90;;;;;;5072706;28;20494;-69
2021/10/29 09:54:21;;;;;;;9.80;6.13;;;14.50;99.90;;;;;;5073078;28;20472;-69
2021/10/29 09:56:55;;;;;;;7.90;6.50;;;14.90;99.90;;;;;;5074354;28;20531;-70
2021/10/29 09:59:22;;;;;;;7.70;5.97;;;15.20;99.90;;;;;;5073440;28;20887;-70
2021/10/29 10:01:52;;;;;;;10.53;5.93;;;15.50;99.90;;;;;;5072931;28;20464;-70
2021/10/29 10:04:21;;;;;;;7.60;6.20;;;15.80;99.90;;;;;;5071203;28;20470;-70
2021/10/29 10:06:48;;;;;;;7.03;5.90;;;16.10;99.90;;;;;;5072796;28;20474;-70
2021/10/29 10:09:16;;;;;;;6.43;5.83;;;16.40;99.90;;;;;;5074431;28;20462;-70
2021/10/29 10:11:46;;;;;;;7.53;5.70;;;16.90;99.90;;;;;;5073778;28;20524;-69
2021/10/29 10:14:15;;;;;;;6.90;5.60;;;17.10;99.90;;;;;;5072492;28;20799;-69
2021/10/29 10:16:43;;;;;;;5.70;5.20;;;17.10;99.90;;;;;;5052927;28;20494;-70
2021/10/29 10:19:12;;;;;;;7.00;5.43;;;17.40;99.90;;;;;;5053100;28;20460;-69
2021/10/29 10:21:41;;;;;;;6.00;5.40;;;17.60;99.90;;;;;;5053230;28;20970;-70
2021/10/29 10:24:13;;;;;;;6.70;6.00;;;17.90;99.90;;;;;;5053740;28;20466;-69
2021/10/29 10:26:55;;;;;;;6.37;5.70;;;18.20;99.90;;;;;;5053582;28;20482;-70
2021/10/29 10:29:32;;;;;;;6.67;5.17;;;18.50;99.90;;;;;;5053382;28;20513;-69
2021/10/29 10:43:40;;;;;;;6.47;5.77;;;19.90;99.90;;;;;;5052621;28;20471;-69
2021/10/29 10:46:13;;;;;;;8.70;5.27;;;19.50;99.90;;;;;;5052116;28;20486;-70
2021/10/29 10:48:45;;;;;;;6.77;5.90;;;19.30;99.90;;;;;;5052706;28;20456;-70
2021/10/29 10:54:38;;;;;;;6.43;5.33;;;19.70;99.90;;;;;;5051683;28;20447;-69
2021/10/29 10:57:22;;;;;;;8.57;6.03;;;19.90;99.90;;;;;;5048698;28;20575;-69
2021/10/29 11:00:00;;;;;;;6.50;4.83;;;18.90;99.90;;;;;;5051771;28;20462;-70
2021/10/29 11:05:41;;;;;;;5.33;4.83;;;19.70;99.90;;;;;;5051516;28;20582;-69
2021/10/29 11:11:06;;;;;;;5.17;4.67;;;20.10;99.90;;;;;;5052308;28;20909;-69
2021/10/29 11:13:57;;;;;;;5.30;4.40;;;20.40;99.90;;;;;;5051484;28;20455;-70
2021/10/29 11:16:36;;;;;;;5.10;4.67;;;21.10;99.90;;;;;;5051053;28;20483;-69
2021/10/29 11:19:11;;;;;;;6.57;5.13;;;21.30;99.70;;;;;;5051608;28;21020;-70
2021/10/29 11:21:48;;;;;;;6.80;4.80;;;21.70;99.90;;;;;;5052004;28;20474;-69
2021/10/29 11:24:27;;;;;;;6.53;4.90;;;21.70;99.90;;;;;;5051352;28;20459;-69
2021/10/29 11:27:03;;;;;;;4.83;4.33;;;21.80;99.90;;;;;;5050013;28;20502;-69
2021/10/29 11:29:30;;;;;;;6.40;4.43;;;21.70;99.90;;;;;;5051733;28;20491;-69
2021/10/29 11:31:58;;;;;;;5.30;4.80;;;22.00;99.50;;;;;;5066813;28;20454;-69
2021/10/29 11:34:25;;;;;;;4.60;3.97;;;22.10;99.90;;;;;;5069549;28;21000;-69
2021/10/29 11:36:53;;;;;;;7.70;4.47;;;22.30;99.80;;;;;;5070379;28;20834;-69
2021/10/29 11:39:23;;;;;;;5.80;4.43;;;22.80;99.90;;;;;;5071115;28;20505;-69
2021/10/29 11:41:52;;;;;;;7.07;4.47;;;22.90;98.60;;;;;;5071162;28;20958;-69
2021/10/29 11:44:21;;;;;;;4.90;4.40;;;22.90;99.20;;;;;;5071146;28;20467;-70
2021/10/29 11:46:49;;;;;;;5.10;4.60;;;23.00;98.80;;;;;;5070221;28;20482;-70
2021/10/29 11:49:19;;;;;;;4.97;4.33;;;23.10;98.90;;;;;;5071139;28;20459;-70
2021/10/29 11:51:46;;;;;;;4.90;4.40;;;23.00;98.00;;;;;;5069444;28;20473;-70
2021/10/29 11:54:23;;;;;;;4.83;4.40;;;23.00;97.90;;;;;;5050772;28;20517;-69
2021/10/29 11:57:07;;;;;;;5.17;4.67;;;23.00;97.40;;;;;;5049860;28;20483;-69
2021/10/29 11:59:57;;;;;;;4.73;4.30;;;22.90;98.10;;;;;;5044753;28;20501;-68
2021/10/29 12:07:53;;;;;;;4.73;4.33;;;23.20;98.30;;;;;;5048887;28;20438;-69
2021/10/29 12:10:22;;;;;;;5.80;4.80;;;23.00;97.10;;;;;;5049750;28;20470;-69
2021/10/29 12:12:57;;;;;;;4.90;4.50;;;22.80;98.30;;;;;;5049588;28;20459;-69
2021/10/29 12:15:26;;;;;;;4.83;4.40;;;22.80;98.40;;;;;;5049233;28;20489;-69
2021/10/29 12:17:56;;;;;;;5.33;4.40;;;22.50;98.40;;;;;;5049320;28;20491;-69
2021/10/29 12:20:38;;;;;;;6.87;4.20;;;22.40;97.90;;;;;;5049568;28;20475;-69
2021/10/29 12:23:10;;;;;;;4.97;4.47;;;22.30;97.30;;;;;;5049324;28;20467;-69
2021/10/29 12:25:45;;;;;;;5.43;4.17;;;22.20;98.00;;;;;;5049812;28;21078;-70
2021/10/29 12:28:14;;;;;;;5.43;4.70;;;22.10;98.00;;;;;;5049496;28;20527;-70
2021/10/29 12:30:46;;;;;;;5.90;5.17;;;21.80;98.30;;;;;;5050147;28;20893;-70
2021/10/29 12:59:00;;;;;;;6.37;5.60;;;20.70;99.80;;;;;;5007128;28;20479;-70
2021/10/29 13:01:33;;;;;;;6.33;5.10;;;20.90;99.90;;;;;;5006383;28;20465;-70
2021/10/29 13:04:01;;;;;;;4.43;4.03;;;20.80;99.60;;;;;;5035314;28;20510;-70
2021/10/29 13:06:31;;;;;;;4.57;4.20;;;20.70;99.80;;;;;;5048252;28;20484;-70
2021/10/29 13:08:59;;;;;;;5.77;4.70;;;20.70;99.90;;;;;;5048858;28;20619;-70
2021/10/29 13:11:26;;;;;;;7.40;4.23;;;20.70;99.80;;;;;;5048836;28;20459;-70
2021/10/29 13:13:56;;;;;;;4.90;4.50;;;20.60;99.10;;;;;;5048521;28;20467;-70
2021/10/29 13:16:25;;;;;;;5.50;4.80;;;20.50;99.00;;;;;;5048357;28;20487;-70
2021/10/29 13:19:08;;;;;;;4.80;4.37;;;20.50;99.90;;;;;;5048448;28;20589;-70
2021/10/29 13:27:05;;;;;;;6.13;4.90;;;20.60;99.90;;;;;;5055103;28;20565;-70
2021/10/29 13:52:15;;;;;;;5.27;4.47;;;20.40;99.10;;;;;;5067583;28;20500;-71
2021/10/29 13:54:49;;;;;;;5.40;4.73;;;20.30;99.50;;;;;;5070398;28;20829;-71
2021/10/29 13:57:50;;;;;;;4.83;4.07;;;20.30;99.60;;;;;;5079183;28;20532;-71
2021/10/29 14:00:43;;;;;;;4.27;3.87;;;20.20;99.30;;;;;;5072627;28;20458;-71
2021/10/29 14:03:29;;;;;;;5.33;4.50;;;20.20;99.80;;;;;;5071512;28;20485;-70
2021/10/29 14:24:21;;;;;;;4.60;4.10;;;19.60;99.90;;;;;;5070424;28;20481;-72
2021/10/29 14:28:22;;;;;;;6.30;5.37;;;19.50;99.90;;;;;;5072368;28;20941;-72
2021/10/29 14:30:57;;;;;;;5.13;4.63;;;19.40;99.90;;;;;;5068244;28;20458;-72
2021/10/29 14:33:27;;;;;;;9.33;4.90;;;19.30;99.90;;;;;;5070224;28;20979;-72
2021/10/29 14:35:57;;;;;;;4.70;4.30;;;19.10;99.90;;;;;;5071535;28;20478;-70
2021/10/29 14:38:33;;;;;;;5.70;5.20;;;19.00;99.90;;;;;;5072230;28;20540;-71
2021/10/29 14:41:05;;;;;;;6.73;5.13;;;18.70;99.90;;;;;;5071989;28;20465;-72
2021/10/29 14:43:35;;;;;;;7.87;5.10;;;18.60;99.90;;;;;;5072578;28;20966;-71
2021/10/29 14:46:09;;;;;;;7.50;5.53;;;18.50;99.90;;;;;;5070213;28;20985;-72
2021/10/29 14:48:46;;;;;;;7.93;5.60;;;18.30;99.90;;;;;;5083011;28;20453;-71
2021/10/29 15:02:33;;;;;;;6.90;5.37;;;18.10;99.90;;;;;;5052858;28;20521;-70
2021/10/29 15:16:11;;;;;;;5.37;4.60;;;17.10;99.90;;;;;;5050889;28;20467;-71
2021/10/29 15:27:00;;;;;;;6.80;4.40;;;15.80;99.90;;;;;;5056458;28;20473;-71
2021/10/29 15:29:36;;;;;;;5.07;4.57;;;15.50;99.90;;;;;;5064488;28;20454;-71
2021/10/29 15:43:15;;;;;;;5.10;4.20;;;14.10;99.90;;;;;;5071475;28;20484;-71
2021/10/29 15:45:44;;;;;;;5.50;4.33;;;13.90;99.90;;;;;;5070899;28;20478;-70
2021/10/29 15:48:15;;;;;;;6.13;4.10;;;13.70;99.90;;;;;;5071110;28;20537;-71
2021/10/29 15:50:42;;;;;;;6.73;4.53;;;13.40;99.90;;;;;;5070658;28;20450;-71
2021/10/29 15:53:12;;;;;;;5.80;4.40;;;13.20;99.90;;;;;;5070840;28;20459;-71
2021/10/29 15:55:41;;;;;;;5.23;3.80;;;12.90;99.90;;;;;;5070259;28;20477;-71
2021/10/29 16:01:08;;;;;;;4.63;3.90;;;12.70;99.90;;;;;;5070211;28;20461;-70
2021/10/29 16:03:44;;;;;;;9.30;4.07;;;12.50;99.90;;;;;;5070737;28;20508;-71
2021/10/29 16:17:09;;;;;;;7.05;5.10;;;11.90;99.90;;;;;;5041901;28;20474;-71
2021/10/29 16:19:37;;;;;;;5.03;4.53;;;11.70;99.90;;;;;;5069428;28;20224;-71
2021/10/29 16:22:07;;;;;;;6.40;4.88;;;11.80;99.90;;;;;;5066232;28;20213;-68
2021/10/29 16:24:36;;;;;;;7.85;4.60;;;11.60;99.90;;;;;;5069479;28;20809;-70
2021/10/29 16:27:03;;;;;;;6.35;4.35;;;11.40;99.90;;;;;;5069543;28;20228;-69
2021/10/29 16:29:30;;;;;;;5.43;4.25;;;11.40;99.90;;;;;;5070027;28;20200;-70
2021/10/29 16:32:00;;;;;;;5.18;4.50;;;11.20;99.90;;;;;;5069131;28;20204;-71
2021/10/29 16:34:28;;;;;;;4.75;4.30;;;11.10;99.90;;;;;;5069811;28;20295;-70
2021/10/29 16:36:55;;;;;;;7.35;4.82;;;10.90;99.90;;;;;;5068598;28;20228;-69